Time;durP1;ratioP1;P1;durP2;ratioP2;P2;SDS_P1;SDS_P2;PMS_P1;PMS_P2;Temp;Humidity;BMP_temperature;BMP_pressure;BME280_temperature;BME280_humidity;BME280_pressure;Samples;Min_cycle;Max_cycle;Signal;HPM_P1;HPM_P2
2024/01/07 00:02:09;;;;;;;33.70;19.03;;;1.70;99.90;;;;;;5115461;28;20626;-45
2024/01/07 00:04:35;;;;;;;44.93;22.10;;;1.80;99.90;;;;;;5114304;28;20580;-44
2024/01/07 00:07:00;;;;;;;40.73;22.10;;;1.70;99.90;;;;;;5115122;28;20274;-43
2024/01/07 00:09:26;;;;;;;41.67;21.37;;;1.70;99.90;;;;;;5114162;28;20192;-44
2024/01/07 00:11:51;;;;;;;34.77;18.63;;;1.70;99.90;;;;;;5114628;28;20178;-42
2024/01/07 00:14:19;;;;;;;33.53;17.17;;;1.70;99.90;;;;;;5114676;28;20536;-44
2024/01/07 00:16:45;;;;;;;44.87;20.33;;;1.80;99.90;;;;;;5114437;28;20210;-44
2024/01/07 00:19:11;;;;;;;51.50;25.37;;;1.70;99.90;;;;;;5114477;28;20178;-45
2024/01/07 00:21:37;;;;;;;47.47;22.80;;;1.70;99.90;;;;;;5113634;28;20190;-45
2024/01/07 00:24:02;;;;;;;48.23;25.10;;;1.70;99.90;;;;;;5113146;28;20178;-44
2024/01/07 00:26:28;;;;;;;53.03;27.47;;;1.70;99.90;;;;;;5114388;28;20208;-44
2024/01/07 00:28:54;;;;;;;36.07;19.00;;;1.70;99.90;;;;;;5114133;28;20174;-43
2024/01/07 00:31:19;;;;;;;61.33;26.60;;;1.70;99.90;;;;;;5113730;28;20202;-42
2024/01/07 00:33:45;;;;;;;47.00;24.87;;;1.70;99.90;;;;;;5113836;28;20178;-45
2024/01/07 00:36:10;;;;;;;44.83;21.33;;;1.70;99.90;;;;;;5113734;28;20236;-42
2024/01/07 00:38:36;;;;;;;40.97;19.43;;;1.70;99.90;;;;;;5114468;28;20163;-42
2024/01/07 00:41:02;;;;;;;50.03;23.93;;;1.70;99.90;;;;;;5113919;28;20202;-44
2024/01/07 00:43:28;;;;;;;49.60;25.53;;;1.70;99.90;;;;;;5114089;28;20189;-44
2024/01/07 00:45:57;;;;;;;43.93;20.87;;;1.70;99.90;;;;;;5114099;28;20179;-43
2024/01/07 00:48:22;;;;;;;42.53;20.70;;;1.70;99.90;;;;;;5113861;28;20703;-42
2024/01/07 00:50:48;;;;;;;52.20;27.13;;;1.70;99.90;;;;;;5113988;28;20202;-44
2024/01/07 00:53:13;;;;;;;48.93;23.13;;;1.70;99.90;;;;;;5114234;28;20227;-43
2024/01/07 00:55:39;;;;;;;55.57;25.27;;;1.70;99.90;;;;;;5111177;28;20186;-42
2024/01/07 00:58:05;;;;;;;56.13;26.87;;;1.70;99.90;;;;;;5113497;28;20201;-44
2024/01/07 01:00:31;;;;;;;52.67;26.37;;;1.70;99.90;;;;;;5113553;28;20226;-45
2024/01/07 01:02:57;;;;;;;53.90;25.87;;;1.70;99.90;;;;;;5113677;28;20217;-43
2024/01/07 01:05:22;;;;;;;53.90;24.87;;;1.70;99.90;;;;;;5113506;28;20170;-44
2024/01/07 01:07:48;;;;;;;54.20;27.90;;;1.80;99.90;;;;;;5112809;28;20190;-44
2024/01/07 01:10:16;;;;;;;42.30;21.83;;;1.70;99.90;;;;;;5113526;28;20233;-43
2024/01/07 01:12:42;;;;;;;50.57;25.27;;;1.80;99.90;;;;;;5095741;28;20209;-43
2024/01/07 01:15:08;;;;;;;43.00;18.73;;;1.80;99.90;;;;;;5113565;28;20218;-43
2024/01/07 01:17:34;;;;;;;45.60;20.80;;;1.80;99.90;;;;;;5113660;28;20198;-45
2024/01/07 01:19:59;;;;;;;43.20;22.10;;;1.80;99.90;;;;;;5113366;28;20197;-44
2024/01/07 01:22:25;;;;;;;47.03;23.30;;;1.80;99.90;;;;;;5113125;28;20269;-45
2024/01/07 01:24:53;;;;;;;42.20;21.47;;;1.80;99.90;;;;;;5114020;28;20154;-44
2024/01/07 01:27:19;;;;;;;40.97;20.80;;;1.80;99.90;;;;;;5113512;28;20197;-44
2024/01/07 01:29:45;;;;;;;42.80;22.80;;;1.80;99.90;;;;;;5112085;28;20220;-44
2024/01/07 01:32:10;;;;;;;37.27;20.00;;;1.80;99.90;;;;;;5113965;28;20623;-45
2024/01/07 01:34:36;;;;;;;44.63;21.37;;;1.80;99.90;;;;;;5113327;28;20251;-43
2024/01/07 01:37:02;;;;;;;44.20;23.77;;;1.80;99.90;;;;;;5113216;28;20206;-44
2024/01/07 01:39:29;;;;;;;42.90;23.57;;;1.90;99.90;;;;;;5113415;28;20185;-43
2024/01/07 01:41:55;;;;;;;35.57;17.43;;;1.90;99.90;;;;;;5112463;28;20560;-42
2024/01/07 01:44:22;;;;;;;40.63;21.93;;;1.90;99.90;;;;;;5114813;28;20234;-44
2024/01/07 01:46:49;;;;;;;39.40;19.27;;;1.90;99.90;;;;;;5117251;28;20179;-43
2024/01/07 01:49:18;;;;;;;42.97;20.83;;;1.90;99.90;;;;;;5117001;28;20299;-43
2024/01/07 01:51:43;;;;;;;36.57;18.97;;;1.90;99.90;;;;;;5116831;27;20312;-43
2024/01/07 01:54:10;;;;;;;37.83;18.80;;;1.90;99.90;;;;;;5115495;28;20594;-43
2024/01/07 01:56:36;;;;;;;37.33;18.70;;;1.90;99.90;;;;;;5116889;28;20570;-44
2024/01/07 01:59:01;;;;;;;37.83;18.70;;;1.90;99.90;;;;;;5115458;28;20182;-44
2024/01/07 02:01:28;;;;;;;35.70;17.40;;;1.90;99.90;;;;;;5116593;28;20205;-43
2024/01/07 02:03:54;;;;;;;41.33;18.43;;;1.90;99.90;;;;;;5116750;28;20185;-43
2024/01/07 02:06:22;;;;;;;39.20;19.77;;;1.90;99.90;;;;;;5116847;28;20539;-44
2024/01/07 02:08:50;;;;;;;25.13;14.10;;;1.90;99.90;;;;;;5116522;28;20253;-44
2024/01/07 02:11:16;;;;;;;30.93;14.13;;;1.90;99.90;;;;;;5116334;28;20201;-44
2024/01/07 02:13:42;;;;;;;38.03;18.27;;;1.90;99.90;;;;;;5116657;28;20174;-44
2024/01/07 02:16:08;;;;;;;31.30;15.33;;;1.90;99.90;;;;;;5115330;28;20549;-43
2024/01/07 02:18:33;;;;;;;21.43;9.23;;;1.90;99.90;;;;;;5115129;28;20182;-44
2024/01/07 02:20:59;;;;;;;25.47;12.83;;;1.90;99.90;;;;;;5116257;28;20194;-42
2024/01/07 02:23:24;;;;;;;32.70;15.27;;;1.90;99.90;;;;;;5116519;28;20257;-44
2024/01/07 02:25:50;;;;;;;34.30;17.60;;;1.90;99.90;;;;;;5116437;28;20183;-44
2024/01/07 02:28:16;;;;;;;31.57;15.87;;;2.00;99.90;;;;;;5116123;28;20257;-43
2024/01/07 02:30:41;;;;;;;29.93;14.23;;;2.00;99.90;;;;;;5116060;28;20243;-44
2024/01/07 02:33:07;;;;;;;25.10;11.53;;;2.00;99.90;;;;;;5116040;28;20239;-44
2024/01/07 02:35:32;;;;;;;24.47;14.10;;;2.00;99.90;;;;;;5116098;28;20182;-43
2024/01/07 02:37:58;;;;;;;30.33;15.07;;;2.00;99.90;;;;;;5115768;28;20216;-44
2024/01/07 02:40:23;;;;;;;29.47;16.03;;;2.00;99.90;;;;;;5115842;28;20209;-44
2024/01/07 02:42:49;;;;;;;31.87;16.07;;;1.90;99.90;;;;;;5115907;28;20179;-43
2024/01/07 02:45:15;;;;;;;31.63;14.50;;;2.00;99.90;;;;;;5115930;28;20180;-44
2024/01/07 02:47:40;;;;;;;32.97;16.23;;;1.90;99.90;;;;;;5115772;28;20260;-43
2024/01/07 02:50:06;;;;;;;37.43;18.43;;;2.00;99.90;;;;;;5114417;28;20210;-44
2024/01/07 02:52:32;;;;;;;29.27;15.50;;;2.00;99.90;;;;;;5115574;28;20189;-45
2024/01/07 02:54:58;;;;;;;30.47;16.33;;;2.00;99.90;;;;;;5115123;28;20218;-43
2024/01/07 02:57:24;;;;;;;31.70;16.47;;;1.90;99.90;;;;;;5115955;28;20209;-44
2024/01/07 02:59:49;;;;;;;34.90;16.63;;;2.00;99.90;;;;;;5115432;28;20556;-43
2024/01/07 03:02:15;;;;;;;31.30;15.77;;;2.00;99.90;;;;;;5115465;28;20717;-44
2024/01/07 03:04:40;;;;;;;36.70;17.63;;;2.00;99.90;;;;;;5115499;28;20202;-44
2024/01/07 03:07:06;;;;;;;34.17;18.07;;;2.00;99.90;;;;;;5116184;28;20183;-44
2024/01/07 03:09:31;;;;;;;32.73;17.53;;;1.90;99.90;;;;;;5115966;28;20517;-44
2024/01/07 03:11:57;;;;;;;31.33;16.90;;;2.00;99.90;;;;;;5116108;28;20191;-44
2024/01/07 03:14:24;;;;;;;40.50;21.43;;;2.00;99.90;;;;;;5115280;28;20182;-44
2024/01/07 03:16:50;;;;;;;33.63;20.03;;;2.00;99.90;;;;;;5115422;28;20198;-44
2024/01/07 03:19:16;;;;;;;32.73;18.97;;;2.00;99.90;;;;;;5115397;27;20165;-44
2024/01/07 03:21:41;;;;;;;34.90;21.07;;;2.00;99.90;;;;;;5115003;28;20198;-44
2024/01/07 03:24:08;;;;;;;33.57;17.37;;;1.90;99.90;;;;;;5115091;28;20201;-45
2024/01/07 03:26:34;;;;;;;41.00;22.60;;;1.90;99.90;;;;;;5115074;28;20184;-45
2024/01/07 03:29:01;;;;;;;33.40;19.30;;;2.00;99.90;;;;;;5115006;28;20182;-43
2024/01/07 03:31:27;;;;;;;33.20;18.00;;;1.90;99.90;;;;;;5115110;28;20195;-45
2024/01/07 03:33:53;;;;;;;30.23;16.23;;;1.90;99.90;;;;;;5114819;28;20232;-45
2024/01/07 03:36:19;;;;;;;28.87;15.73;;;2.00;99.90;;;;;;5114599;28;20202;-44
2024/01/07 03:38:44;;;;;;;28.03;14.93;;;2.00;99.90;;;;;;5114567;28;20192;-44
2024/01/07 03:41:17;;;;;;;35.40;18.27;;;1.90;99.90;;;;;;5114902;28;20376;-44
2024/01/07 03:43:43;;;;;;;24.07;14.90;;;1.90;99.90;;;;;;5114866;28;20166;-42
2024/01/07 03:46:08;;;;;;;25.73;15.53;;;1.90;99.90;;;;;;5114991;28;20174;-44
2024/01/07 03:48:34;;;;;;;25.93;15.73;;;1.90;99.90;;;;;;5114504;28;20540;-44
2024/01/07 03:51:00;;;;;;;27.60;17.03;;;1.90;99.90;;;;;;5114466;28;20667;-43
2024/01/07 03:53:25;;;;;;;28.87;18.77;;;1.90;99.90;;;;;;5114478;28;20227;-44
2024/01/07 03:55:51;;;;;;;29.70;16.87;;;1.90;99.90;;;;;;5113288;28;20174;-43
2024/01/07 03:58:16;;;;;;;31.73;17.43;;;1.90;99.90;;;;;;5114287;28;20734;-43
2024/01/07 04:00:42;;;;;;;27.77;16.50;;;1.90;99.90;;;;;;5114618;28;20194;-44
2024/01/07 04:03:08;;;;;;;27.97;17.57;;;1.90;99.90;;;;;;5114582;28;20181;-43
2024/01/07 04:05:33;;;;;;;33.50;20.13;;;1.90;99.90;;;;;;5114516;28;20174;-44
2024/01/07 04:08:02;;;;;;;24.13;12.83;;;1.90;99.90;;;;;;5114126;28;20205;-44
2024/01/07 04:10:28;;;;;;;32.50;19.27;;;1.90;99.90;;;;;;5114378;28;20202;-42
2024/01/07 04:12:53;;;;;;;33.13;22.20;;;2.00;99.90;;;;;;5114440;28;20193;-42
2024/01/07 04:15:20;;;;;;;35.37;18.07;;;1.90;99.90;;;;;;5114135;28;20185;-44
2024/01/07 04:17:46;;;;;;;31.43;19.67;;;2.00;99.90;;;;;;5114286;28;20271;-45
2024/01/07 04:20:14;;;;;;;31.67;19.57;;;2.00;99.90;;;;;;5113943;28;20230;-43
2024/01/07 04:22:40;;;;;;;38.47;20.63;;;2.00;99.90;;;;;;5114211;28;20174;-43
2024/01/07 04:25:10;;;;;;;33.27;20.33;;;1.90;99.90;;;;;;5114439;28;20200;-44
2024/01/07 04:27:36;;;;;;;35.10;21.47;;;2.00;99.90;;;;;;5113271;28;20170;-44
2024/01/07 04:30:02;;;;;;;28.60;18.10;;;2.00;99.90;;;;;;5113901;28;20204;-42
2024/01/07 04:32:27;;;;;;;27.93;16.80;;;1.90;99.90;;;;;;5113890;28;20178;-44
2024/01/07 04:34:53;;;;;;;34.07;20.17;;;1.90;99.90;;;;;;5113956;28;20186;-44
2024/01/07 04:37:19;;;;;;;30.90;19.13;;;2.00;99.90;;;;;;5112539;28;20210;-44
2024/01/07 04:39:45;;;;;;;32.47;19.07;;;2.00;99.90;;;;;;5112645;28;20540;-43
2024/01/07 04:42:10;;;;;;;33.50;20.90;;;1.90;99.90;;;;;;5112621;28;20190;-43
2024/01/07 04:44:36;;;;;;;36.27;21.30;;;2.00;99.90;;;;;;5114085;28;20170;-44
2024/01/07 04:47:01;;;;;;;37.53;20.93;;;2.00;99.90;;;;;;5113891;28;20212;-44
2024/01/07 04:49:27;;;;;;;27.53;16.47;;;1.90;99.90;;;;;;5113608;28;20186;-45
2024/01/07 04:51:52;;;;;;;38.73;21.47;;;1.90;99.90;;;;;;5113706;28;20182;-45
2024/01/07 04:54:18;;;;;;;41.67;20.67;;;2.00;99.90;;;;;;5112771;28;20272;-44
2024/01/07 04:56:44;;;;;;;36.93;20.73;;;1.90;99.90;;;;;;5113541;28;20241;-44
2024/01/07 04:59:10;;;;;;;43.43;26.30;;;1.90;99.90;;;;;;5114559;28;20181;-44
2024/01/07 05:01:35;;;;;;;34.07;19.40;;;1.90;99.90;;;;;;5113663;28;20322;-44
2024/01/07 05:04:02;;;;;;;37.97;20.70;;;1.90;99.90;;;;;;5113854;28;20175;-43
2024/01/07 05:06:31;;;;;;;35.83;21.43;;;1.90;99.90;;;;;;5113637;28;20174;-44
2024/01/07 05:08:57;;;;;;;36.70;21.50;;;1.90;99.90;;;;;;5113578;28;20177;-44
2024/01/07 05:11:22;;;;;;;37.53;23.63;;;1.90;99.90;;;;;;5113775;28;20202;-44
2024/01/07 05:13:48;;;;;;;40.90;23.27;;;1.90;99.90;;;;;;5113543;28;20174;-42
2024/01/07 05:16:20;;;;;;;38.67;22.00;;;1.90;99.90;;;;;;5113441;28;20254;-45
2024/01/07 05:18:48;;;;;;;35.07;21.57;;;1.80;99.90;;;;;;5114486;28;20227;-44
2024/01/07 05:21:22;;;;;;;28.80;17.70;;;1.80;99.90;;;;;;5117455;28;20205;-45
2024/01/07 05:23:51;;;;;;;36.80;22.07;;;1.80;99.90;;;;;;5118568;28;20262;-45
2024/01/07 05:26:16;;;;;;;43.20;25.03;;;1.80;99.90;;;;;;5119029;28;20182;-44
2024/01/07 05:28:43;;;;;;;39.20;21.60;;;1.80;99.90;;;;;;5116289;28;20185;-44
2024/01/07 05:31:18;;;;;;;30.10;17.43;;;1.90;99.90;;;;;;5117208;28;20726;-44
2024/01/07 05:33:45;;;;;;;29.57;17.43;;;1.80;99.90;;;;;;5117579;28;20207;-44
2024/01/07 05:36:12;;;;;;;31.10;20.00;;;1.80;99.90;;;;;;5117268;28;20711;-43
2024/01/07 05:38:38;;;;;;;33.70;20.37;;;1.80;99.90;;;;;;5117768;28;20231;-46
2024/01/07 05:41:07;;;;;;;31.30;18.57;;;1.80;99.90;;;;;;5115788;28;20209;-44
2024/01/07 05:43:35;;;;;;;31.70;18.47;;;1.80;99.90;;;;;;5117050;28;20181;-41
2024/01/07 05:46:01;;;;;;;29.33;19.57;;;1.80;99.90;;;;;;5117272;28;20645;-45
2024/01/07 05:48:26;;;;;;;29.37;17.43;;;1.80;99.90;;;;;;5116965;28;20214;-43
2024/01/07 05:50:54;;;;;;;27.93;19.43;;;1.80;99.90;;;;;;5115710;28;20280;-43
2024/01/07 05:53:19;;;;;;;30.43;19.20;;;1.80;99.90;;;;;;5117250;28;20212;-45
2024/01/07 05:55:45;;;;;;;29.47;18.60;;;1.80;99.90;;;;;;5116847;28;20186;-45
2024/01/07 05:58:11;;;;;;;27.00;17.17;;;1.80;99.90;;;;;;5115745;28;20206;-42
2024/01/07 06:00:37;;;;;;;29.43;17.37;;;1.80;99.90;;;;;;5116597;28;20201;-46
2024/01/07 06:03:03;;;;;;;31.73;17.60;;;1.80;99.90;;;;;;5116784;28;20206;-44
2024/01/07 06:05:32;;;;;;;26.73;18.10;;;1.80;99.90;;;;;;5115439;28;20642;-42
2024/01/07 06:07:58;;;;;;;25.87;16.87;;;1.80;99.90;;;;;;5116675;28;20266;-44
2024/01/07 06:10:23;;;;;;;26.30;17.17;;;1.70;99.90;;;;;;5116453;28;20622;-43
2024/01/07 06:12:49;;;;;;;23.93;15.50;;;1.70;99.90;;;;;;5116630;28;20595;-44
2024/01/07 06:15:14;;;;;;;26.13;19.33;;;1.70;99.90;;;;;;5116565;28;20657;-43
2024/01/07 06:17:40;;;;;;;24.87;16.17;;;1.70;99.90;;;;;;5116894;28;20198;-44
2024/01/07 06:20:08;;;;;;;20.03;14.07;;;1.70;99.90;;;;;;5116367;28;20221;-44
2024/01/07 06:22:33;;;;;;;26.40;17.80;;;1.70;99.90;;;;;;5117010;27;20173;-45
2024/01/07 06:24:59;;;;;;;26.47;18.70;;;1.60;99.90;;;;;;5116485;28;20178;-45
2024/01/07 06:27:24;;;;;;;29.53;19.03;;;1.70;99.90;;;;;;5117025;28;20206;-45
2024/01/07 06:29:50;;;;;;;25.57;16.83;;;1.60;99.90;;;;;;5115969;28;20198;-43
2024/01/07 06:32:15;;;;;;;29.40;18.73;;;1.60;99.90;;;;;;5116541;28;20235;-45
2024/01/07 06:34:41;;;;;;;25.53;18.57;;;1.60;99.90;;;;;;5115143;28;20194;-45
2024/01/07 06:37:08;;;;;;;25.37;16.60;;;1.60;99.90;;;;;;5116062;28;20220;-44
2024/01/07 06:39:34;;;;;;;27.17;16.73;;;1.50;99.90;;;;;;5116313;28;20543;-44
2024/01/07 06:42:00;;;;;;;25.67;16.17;;;1.50;99.90;;;;;;5116394;28;20174;-43
2024/01/07 06:44:25;;;;;;;23.70;16.27;;;1.50;99.90;;;;;;5114772;28;20178;-44
2024/01/07 06:46:51;;;;;;;21.77;13.97;;;1.50;99.90;;;;;;5116167;28;20283;-44
2024/01/07 06:49:16;;;;;;;32.20;16.23;;;1.50;99.90;;;;;;5114626;28;20255;-44
2024/01/07 06:51:42;;;;;;;21.20;13.53;;;1.50;99.90;;;;;;5116070;28;20209;-44
2024/01/07 06:54:08;;;;;;;24.70;17.23;;;1.50;99.90;;;;;;5114495;28;20194;-45
2024/01/07 06:56:33;;;;;;;25.50;16.33;;;1.50;99.90;;;;;;5115764;28;20202;-45
2024/01/07 06:58:59;;;;;;;22.43;14.50;;;1.50;99.90;;;;;;5114515;28;20182;-45
2024/01/07 07:01:25;;;;;;;22.07;14.60;;;1.50;99.90;;;;;;5116074;28;20240;-45
2024/01/07 07:03:51;;;;;;;22.63;13.57;;;1.50;99.90;;;;;;5115570;28;20185;-44
2024/01/07 07:06:17;;;;;;;20.50;14.07;;;1.40;99.90;;;;;;5115985;28;20261;-45
2024/01/07 07:08:43;;;;;;;18.57;13.70;;;1.50;99.90;;;;;;5115863;27;20178;-45
2024/01/07 07:11:08;;;;;;;16.23;11.50;;;1.50;99.90;;;;;;5115466;28;20665;-46
2024/01/07 07:13:35;;;;;;;19.77;12.87;;;1.40;99.90;;;;;;5116005;28;20174;-44
2024/01/07 07:16:01;;;;;;;20.40;13.90;;;1.40;99.90;;;;;;5120380;28;20175;-44
2024/01/07 07:18:27;;;;;;;18.00;12.10;;;1.40;99.90;;;;;;5115526;28;20210;-44
2024/01/07 07:20:53;;;;;;;21.87;15.03;;;1.40;99.90;;;;;;5115796;28;20290;-44
2024/01/07 07:23:19;;;;;;;19.80;13.27;;;1.40;99.90;;;;;;5115966;28;20174;-45
2024/01/07 07:25:45;;;;;;;20.23;14.67;;;1.40;99.90;;;;;;5115490;28;20539;-43
2024/01/07 07:28:10;;;;;;;21.87;16.60;;;1.40;99.90;;;;;;5115737;28;20642;-44
2024/01/07 07:30:36;;;;;;;22.17;15.17;;;1.40;99.90;;;;;;5115102;28;20247;-44
2024/01/07 07:33:02;;;;;;;20.30;13.67;;;1.40;99.90;;;;;;5115242;28;20183;-44
2024/01/07 07:35:31;;;;;;;22.57;14.50;;;1.40;99.90;;;;;;5115701;27;20193;-44
2024/01/07 07:37:56;;;;;;;20.83;14.70;;;1.40;99.90;;;;;;5115355;28;20546;-45
2024/01/07 07:40:22;;;;;;;20.13;13.43;;;1.40;99.90;;;;;;5115963;28;20216;-45
2024/01/07 07:42:48;;;;;;;23.47;15.00;;;1.40;99.90;;;;;;5114223;28;20174;-43
2024/01/07 07:45:13;;;;;;;19.23;13.13;;;1.30;99.90;;;;;;5114701;27;20171;-43
2024/01/07 07:47:44;;;;;;;25.17;14.37;;;1.30;99.90;;;;;;5114742;28;20190;-46
2024/01/07 07:50:10;;;;;;;25.43;14.43;;;1.30;99.90;;;;;;5114809;28;20203;-43
2024/01/07 07:52:36;;;;;;;24.23;16.27;;;1.30;99.90;;;;;;5114791;28;20182;-42
2024/01/07 07:55:01;;;;;;;26.30;15.93;;;1.30;99.90;;;;;;5113467;28;20210;-43
2024/01/07 07:57:28;;;;;;;25.67;14.97;;;1.30;99.90;;;;;;5114662;28;20210;-45
2024/01/07 07:59:54;;;;;;;23.27;15.83;;;1.30;99.90;;;;;;5115042;28;20221;-43
2024/01/07 08:02:20;;;;;;;25.53;16.33;;;1.20;99.90;;;;;;5114694;28;20209;-44
2024/01/07 08:04:47;;;;;;;19.00;11.80;;;1.30;99.90;;;;;;5114703;28;20211;-44
2024/01/07 08:07:13;;;;;;;25.97;16.13;;;1.20;99.90;;;;;;5113048;28;20190;-43
2024/01/07 08:09:38;;;;;;;25.07;16.27;;;1.30;99.90;;;;;;5112941;28;20710;-44
2024/01/07 08:12:05;;;;;;;24.53;15.23;;;1.20;99.90;;;;;;5113141;28;20193;-43
2024/01/07 08:14:32;;;;;;;23.33;16.17;;;1.30;99.90;;;;;;5114244;28;20639;-43
2024/01/07 08:16:57;;;;;;;22.00;14.43;;;1.20;99.90;;;;;;5112887;28;20222;-44
2024/01/07 08:19:23;;;;;;;22.13;14.23;;;1.20;99.90;;;;;;5112842;28;20288;-44
2024/01/07 08:21:49;;;;;;;19.03;14.07;;;1.20;99.90;;;;;;5114292;28;20201;-44
2024/01/07 08:24:14;;;;;;;22.50;14.67;;;1.20;99.90;;;;;;5112857;28;20197;-44
2024/01/07 08:26:43;;;;;;;22.07;14.53;;;1.30;99.90;;;;;;5114020;28;20548;-43
2024/01/07 08:29:09;;;;;;;20.43;13.90;;;1.20;99.90;;;;;;5113929;28;20272;-43
2024/01/07 08:31:34;;;;;;;26.23;15.93;;;1.30;99.90;;;;;;5112621;28;20287;-43
2024/01/07 08:34:00;;;;;;;18.30;11.10;;;1.30;99.90;;;;;;5114178;28;20174;-46
2024/01/07 08:36:27;;;;;;;24.90;16.83;;;1.20;99.90;;;;;;5113936;28;20189;-44
2024/01/07 08:38:53;;;;;;;21.17;15.27;;;1.30;99.90;;;;;;5113885;28;20307;-44
2024/01/07 08:41:21;;;;;;;24.10;15.43;;;1.30;99.90;;;;;;5113765;28;20213;-44
2024/01/07 08:43:47;;;;;;;21.70;15.13;;;1.20;99.90;;;;;;5113775;28;20206;-43
2024/01/07 08:46:13;;;;;;;22.37;15.30;;;1.20;99.90;;;;;;5114663;28;20194;-44
2024/01/07 08:48:39;;;;;;;24.37;16.30;;;1.20;99.90;;;;;;5112469;28;20269;-45
2024/01/07 08:51:05;;;;;;;25.63;16.10;;;1.20;99.90;;;;;;5113800;28;20267;-44
2024/01/07 08:53:31;;;;;;;23.50;15.07;;;1.20;99.90;;;;;;5115663;28;20174;-43
2024/01/07 08:55:57;;;;;;;21.00;13.40;;;1.20;99.90;;;;;;5118137;28;20257;-44
2024/01/07 08:58:24;;;;;;;23.23;15.30;;;1.20;99.90;;;;;;5117818;28;20320;-44
2024/01/07 09:00:49;;;;;;;25.30;14.83;;;1.10;99.90;;;;;;5118092;28;20210;-44
2024/01/07 09:03:17;;;;;;;22.53;14.63;;;1.20;99.90;;;;;;5117866;28;20660;-43
2024/01/07 09:05:44;;;;;;;21.17;15.23;;;1.10;99.90;;;;;;5117937;28;20204;-45
2024/01/07 09:08:14;;;;;;;22.80;15.67;;;1.10;99.90;;;;;;5116403;28;20186;-44
2024/01/07 09:10:54;;;;;;;22.33;14.63;;;1.20;99.90;;;;;;5116981;28;20315;-43
2024/01/07 09:16:55;;;;;;;22.37;14.80;;;1.10;99.90;;;;;;5117488;28;20232;-45
2024/01/07 09:19:31;;;;;;;21.97;13.17;;;1.10;99.90;;;;;;5112247;28;20258;-44
2024/01/07 09:22:00;;;;;;;23.57;14.23;;;1.10;99.90;;;;;;5116923;28;20182;-45
2024/01/07 09:31:50;;;;;;;23.50;14.73;;;1.00;99.90;;;;;;5117412;28;20211;-45
2024/01/07 09:34:51;;;;;;;20.73;12.47;;;1.00;99.90;;;;;;5073097;28;20542;-43
2024/01/07 09:40:44;;;;;;;20.23;12.57;;;1.00;99.90;;;;;;5117143;28;20221;-43
2024/01/07 09:43:10;;;;;;;19.77;12.20;;;1.00;99.90;;;;;;5116882;28;20194;-42
2024/01/07 09:45:38;;;;;;;12.53;7.83;;;1.00;99.90;;;;;;5117475;28;20187;-44
2024/01/07 09:48:04;;;;;;;16.97;11.50;;;1.00;99.90;;;;;;5117188;28;20539;-41
2024/01/07 09:50:33;;;;;;;14.97;11.83;;;1.00;99.90;;;;;;5117078;28;20197;-45
2024/01/07 09:53:02;;;;;;;15.47;9.97;;;1.00;99.90;;;;;;5116842;28;20171;-43
2024/01/07 09:55:37;;;;;;;15.43;11.20;;;1.00;99.90;;;;;;5117104;28;20184;-42
2024/01/07 09:58:04;;;;;;;17.17;10.20;;;0.90;99.90;;;;;;5116721;28;20246;-43
2024/01/07 10:00:33;;;;;;;19.80;12.37;;;0.90;99.90;;;;;;5116159;28;20283;-43
2024/01/07 10:02:59;;;;;;;18.80;11.33;;;1.00;99.90;;;;;;5116700;28;20174;-44
2024/01/07 10:05:24;;;;;;;16.50;11.00;;;0.90;99.90;;;;;;5115873;28;20185;-43
2024/01/07 10:07:50;;;;;;;16.47;10.97;;;0.90;99.90;;;;;;5117061;28;20175;-45
2024/01/07 10:10:18;;;;;;;17.93;12.67;;;0.90;99.90;;;;;;5116548;28;20348;-44
2024/01/07 10:12:49;;;;;;;10.33;6.20;;;0.90;99.90;;;;;;5117251;28;20231;-44
2024/01/07 10:15:15;;;;;;;22.03;12.03;;;0.90;99.90;;;;;;5123088;28;20187;-44
2024/01/07 10:17:42;;;;;;;18.13;11.50;;;0.90;99.90;;;;;;5122953;28;20202;-43
2024/01/07 10:20:12;;;;;;;15.57;10.40;;;0.90;99.90;;;;;;5121756;28;20205;-44
2024/01/07 10:22:38;;;;;;;21.00;13.20;;;1.00;99.90;;;;;;5117008;28;20273;-44
2024/01/07 10:25:04;;;;;;;21.80;13.97;;;1.00;99.90;;;;;;5116805;28;20206;-45
2024/01/07 10:27:39;;;;;;;17.37;11.77;;;0.90;99.90;;;;;;5116882;28;20178;-44
2024/01/07 10:30:05;;;;;;;19.00;11.83;;;1.00;99.90;;;;;;5116731;28;20202;-45
2024/01/07 10:32:32;;;;;;;16.17;11.37;;;1.00;99.90;;;;;;5116699;28;20186;-45
2024/01/07 10:35:04;;;;;;;15.10;10.47;;;1.00;99.90;;;;;;5116356;27;20179;-43
2024/01/07 10:37:30;;;;;;;17.83;11.93;;;1.00;99.90;;;;;;5116805;28;20606;-43
2024/01/07 10:40:03;;;;;;;17.17;10.90;;;1.00;99.90;;;;;;5116429;28;20214;-43
2024/01/07 10:42:31;;;;;;;15.97;11.37;;;1.00;99.90;;;;;;5115962;28;20201;-44
2024/01/07 10:44:57;;;;;;;15.57;10.90;;;1.00;99.90;;;;;;5115161;28;20182;-44
2024/01/07 10:47:24;;;;;;;14.87;10.43;;;0.90;99.90;;;;;;5116190;28;20200;-45
2024/01/07 10:49:50;;;;;;;18.10;11.07;;;0.90;99.90;;;;;;5115908;28;20277;-44
2024/01/07 10:52:17;;;;;;;13.87;8.43;;;0.90;99.90;;;;;;5116431;28;20178;-45
2024/01/07 10:54:46;;;;;;;15.83;11.53;;;0.90;99.90;;;;;;5115789;28;20179;-44
2024/01/07 10:57:32;;;;;;;15.50;11.37;;;0.90;99.90;;;;;;5115554;28;20673;-45
2024/01/07 11:00:00;;;;;;;13.30;9.57;;;0.90;99.90;;;;;;5115613;27;20650;-44
2024/01/07 11:02:26;;;;;;;15.27;11.00;;;0.90;99.90;;;;;;5115569;28;20576;-43
2024/01/07 11:05:20;;;;;;;19.50;12.07;;;0.90;99.90;;;;;;5114479;28;20559;-44
2024/01/07 11:08:01;;;;;;;15.70;10.20;;;0.90;99.90;;;;;;5116173;28;20158;-43
2024/01/07 11:10:34;;;;;;;18.83;12.20;;;0.90;99.90;;;;;;5115672;28;20194;-44
2024/01/07 11:13:00;;;;;;;15.60;10.97;;;0.90;99.90;;;;;;5115686;28;20159;-44
2024/01/07 11:15:47;;;;;;;13.20;9.87;;;0.90;99.90;;;;;;5116157;28;20185;-45
2024/01/07 11:18:19;;;;;;;16.43;12.37;;;0.90;99.90;;;;;;5114556;28;20590;-45
2024/01/07 11:20:47;;;;;;;18.97;12.27;;;0.90;99.90;;;;;;5115491;28;20202;-45
2024/01/07 11:23:40;;;;;;;20.17;13.97;;;0.90;99.90;;;;;;5115173;28;20669;-44
2024/01/07 11:26:06;;;;;;;18.80;11.43;;;0.90;99.90;;;;;;5113306;28;20235;-44
2024/01/07 11:28:45;;;;;;;19.40;10.67;;;1.00;99.90;;;;;;5115213;28;20197;-45
2024/01/07 11:31:12;;;;;;;14.27;9.80;;;0.90;99.90;;;;;;5115321;28;20201;-45
2024/01/07 11:33:38;;;;;;;17.23;12.47;;;0.90;99.90;;;;;;5115168;28;20238;-46
2024/01/07 11:36:05;;;;;;;17.47;11.93;;;0.90;99.90;;;;;;5115082;28;20257;-45
2024/01/07 11:38:39;;;;;;;13.90;8.83;;;1.00;99.90;;;;;;5096471;28;20699;-44
2024/01/07 11:41:06;;;;;;;15.33;10.60;;;0.90;99.90;;;;;;5113532;28;20225;-43
2024/01/07 11:43:34;;;;;;;12.97;8.43;;;0.90;99.90;;;;;;5114841;27;20178;-44
2024/01/07 11:46:00;;;;;;;8.93;6.83;;;0.90;99.90;;;;;;5113834;28;20178;-45
2024/01/07 11:48:25;;;;;;;16.80;7.93;;;0.90;99.90;;;;;;5096582;28;20530;-44
2024/01/07 11:50:57;;;;;;;17.33;11.57;;;0.90;99.90;;;;;;5114602;28;20190;-43
2024/01/07 11:53:23;;;;;;;15.73;11.23;;;0.90;99.90;;;;;;5113276;28;20178;-44
2024/01/07 11:55:48;;;;;;;12.90;9.33;;;0.90;99.90;;;;;;5114634;28;20177;-41
2024/01/07 11:58:14;;;;;;;11.33;8.10;;;0.80;99.90;;;;;;5113292;28;20206;-44
2024/01/07 12:00:39;;;;;;;13.53;9.43;;;0.90;99.90;;;;;;5114498;28;20247;-44
2024/01/07 12:03:05;;;;;;;14.47;9.23;;;0.80;99.90;;;;;;5114890;28;20174;-44
2024/01/07 12:05:37;;;;;;;14.63;9.20;;;0.90;99.90;;;;;;5114464;28;20542;-44
2024/01/07 12:08:03;;;;;;;14.37;9.80;;;0.80;99.90;;;;;;5114380;28;20212;-43
2024/01/07 12:10:28;;;;;;;17.50;12.30;;;0.80;99.90;;;;;;5114669;28;20193;-45
2024/01/07 12:12:54;;;;;;;18.07;12.03;;;0.80;99.90;;;;;;5114568;28;20185;-45
2024/01/07 12:15:23;;;;;;;14.40;11.00;;;0.80;99.90;;;;;;5114325;28;20178;-44
2024/01/07 12:18:01;;;;;;;16.47;12.53;;;0.80;99.90;;;;;;5114122;28;20775;-45
2024/01/07 12:20:27;;;;;;;15.30;10.90;;;0.80;99.90;;;;;;5114143;28;20194;-45
2024/01/07 12:22:57;;;;;;;15.90;10.73;;;0.80;99.90;;;;;;5112981;28;20653;-44
2024/01/07 12:25:25;;;;;;;16.97;11.13;;;0.80;99.90;;;;;;5114350;28;20522;-43
2024/01/07 12:27:52;;;;;;;18.33;11.03;;;0.80;99.90;;;;;;5114163;28;20212;-44
2024/01/07 12:30:30;;;;;;;11.33;8.13;;;0.80;99.90;;;;;;5114247;28;20214;-44
2024/01/07 12:32:56;;;;;;;10.90;8.53;;;0.80;99.90;;;;;;5114265;28;20196;-45
2024/01/07 12:35:26;;;;;;;14.13;9.90;;;0.70;99.90;;;;;;5114036;28;20177;-43
2024/01/07 12:37:52;;;;;;;14.70;10.93;;;0.80;99.90;;;;;;5113835;28;20213;-45
2024/01/07 12:40:20;;;;;;;17.37;11.50;;;0.70;99.90;;;;;;5114133;28;20630;-44
2024/01/07 12:42:47;;;;;;;18.57;12.03;;;0.70;99.90;;;;;;5113805;28;20589;-43
2024/01/07 12:45:14;;;;;;;15.83;9.60;;;0.70;99.90;;;;;;5114121;28;20219;-45
2024/01/07 12:47:41;;;;;;;15.37;11.40;;;0.70;99.90;;;;;;5113959;28;20634;-43
2024/01/07 12:50:09;;;;;;;15.57;10.03;;;0.70;99.90;;;;;;5113922;28;20650;-45
2024/01/07 12:52:37;;;;;;;15.00;10.20;;;0.70;99.90;;;;;;5112616;28;20186;-43